Time;durP1;ratioP1;P1;durP2;ratioP2;P2;SDS_P1;SDS_P2;PMS_P1;PMS_P2;Temp;Humidity;BMP_temperature;BMP_pressure;BME280_temperature;BME280_humidity;BME280_pressure;Samples;Min_cycle;Max_cycle;Signal;HPM_P1;HPM_P2
2020/12/21 00:02:21;;;;;;;8.52;3.75;;;;;;;9.26;76.10;99544.06;5135962;27;20050;-66
2020/12/21 00:04:48;;;;;;;13.20;4.53;;;;;;;9.22;75.98;99548.84;5116804;28;20054;-66
2020/12/21 00:07:15;;;;;;;10.82;4.53;;;;;;;9.24;75.90;99546.06;5117385;28;20043;-66
2020/12/21 00:09:43;;;;;;;13.02;4.00;;;;;;;9.18;76.07;99553.66;5136352;27;20042;-66
2020/12/21 00:12:09;;;;;;;7.75;4.15;;;;;;;9.20;76.03;99555.31;5117558;28;20057;-66
2020/12/21 00:14:36;;;;;;;8.70;3.83;;;;;;;9.16;76.06;99555.63;5136764;28;20099;-66
2020/12/21 00:17:04;;;;;;;10.13;4.07;;;;;;;9.16;76.02;99554.81;5136758;28;20038;-66
2020/12/21 00:19:31;;;;;;;11.18;3.53;;;;;;;9.16;75.64;99562.72;5137545;28;20047;-66
2020/12/21 00:21:57;;;;;;;13.98;3.78;;;;;;;9.12;75.67;99556.13;5138337;27;20051;-66
2020/12/21 00:24:25;;;;;;;11.55;3.70;;;;;;;9.10;75.40;99556.31;5135105;28;20043;-67
2020/12/21 00:26:52;;;;;;;11.40;4.20;;;;;;;9.11;75.44;99563.22;5114298;28;20516;-67
2020/12/21 00:29:20;;;;;;;8.75;4.00;;;;;;;9.13;75.58;99563.88;5132601;28;20051;-66
2020/12/21 00:31:48;;;;;;;14.50;4.57;;;;;;;9.17;75.25;99561.72;5132595;28;20450;-67
2020/12/21 00:34:15;;;;;;;8.20;3.83;;;;;;;9.13;75.19;99563.03;5132952;27;20581;-67
2020/12/21 00:36:44;;;;;;;8.52;3.33;;;;;;;9.07;74.93;99564.53;5137108;27;20489;-66
2020/12/21 00:39:11;;;;;;;8.70;3.30;;;;;;;9.12;75.16;99566.69;5136915;27;20035;-66
2020/12/21 00:41:40;;;;;;;11.02;3.95;;;;;;;9.14;75.10;99565.53;5136773;27;20058;-66
2020/12/21 00:44:06;;;;;;;8.40;3.75;;;;;;;9.13;74.92;99557.78;5136471;27;20581;-66
2020/12/21 00:46:33;;;;;;;7.95;3.55;;;;;;;9.08;75.08;99554.81;5136642;27;20067;-66
2020/12/21 00:49:01;;;;;;;10.95;3.70;;;;;;;9.01;74.93;99554.63;5118183;27;20058;-66
2020/12/21 00:51:29;;;;;;;7.63;3.70;;;;;;;8.99;75.13;99553.97;5136760;27;20096;-66
2020/12/21 00:53:56;;;;;;;8.63;2.95;;;;;;;8.96;74.79;99556.94;5136066;27;20442;-66
2020/12/21 00:56:23;;;;;;;8.40;3.20;;;;;;;9.01;74.66;99554.63;5136429;27;20595;-66
2020/12/21 00:58:51;;;;;;;8.25;3.17;;;;;;;9.06;74.39;99546.22;5136491;27;20043;-66
2020/12/21 01:01:21;;;;;;;11.02;3.40;;;;;;;9.07;74.51;99559.25;5117970;27;20092;-65
2020/12/21 01:03:56;;;;;;;8.35;3.50;;;;;;;9.08;74.41;99549.53;5117634;27;20039;-66
2020/12/21 01:06:23;;;;;;;8.93;2.72;;;;;;;9.04;74.07;99551.66;5117773;27;20051;-66
2020/12/21 01:08:55;;;;;;;9.70;3.13;;;;;;;9.10;74.05;99558.09;5117917;27;20073;-66
2020/12/21 01:11:22;;;;;;;6.45;2.85;;;;;;;9.13;73.91;99565.69;5136237;27;20057;-66
2020/12/21 01:13:49;;;;;;;10.05;3.13;;;;;;;9.20;74.11;99566.69;5135751;27;20047;-66
2020/12/21 01:16:20;;;;;;;10.88;3.40;;;;;;;9.13;73.67;99557.78;5136126;27;20100;-66
2020/12/21 01:18:47;;;;;;;8.05;3.00;;;;;;;9.05;73.82;99557.75;5136144;27;20039;-66
2020/12/21 01:21:22;;;;;;;9.02;3.85;;;;;;;8.98;73.95;99565.53;5136202;27;20043;-66
2020/12/21 01:23:49;;;;;;;16.27;5.20;;;;;;;9.00;74.10;99563.53;5135827;27;20091;-66
2020/12/21 01:26:15;;;;;;;21.02;7.63;;;;;;;9.02;74.23;99566.84;5117761;27;20409;-66
2020/12/21 01:28:42;;;;;;;13.18;4.97;;;;;;;9.01;74.27;99567.00;5135823;27;20046;-65
2020/12/21 01:31:09;;;;;;;7.28;3.30;;;;;;;8.98;74.40;99568.16;5135915;27;20052;-66
2020/12/21 01:33:36;;;;;;;6.70;3.75;;;;;;;9.01;74.60;99573.09;5135442;27;20416;-66
2020/12/21 01:36:04;;;;;;;9.80;3.65;;;;;;;9.04;74.19;99559.59;5135668;27;20043;-66
2020/12/21 01:38:31;;;;;;;8.90;3.60;;;;;;;9.08;74.22;99565.34;5135781;27;20043;-66
2020/12/21 01:40:58;;;;;;;9.55;3.10;;;;;;;9.07;74.29;99566.34;5135647;27;20050;-66
2020/12/21 01:43:24;;;;;;;9.38;3.80;;;;;;;9.04;74.44;99564.84;5116881;27;20043;-67
2020/12/21 01:45:51;;;;;;;11.85;5.57;;;;;;;9.02;74.51;99564.22;5116607;27;20039;-67
2020/12/21 01:48:18;;;;;;;10.13;4.38;;;;;;;9.05;74.60;99557.75;5117185;27;20049;-67
2020/12/21 01:50:46;;;;;;;9.52;3.85;;;;;;;9.06;74.18;99556.78;5135615;27;20670;-67
2020/12/21 01:53:13;;;;;;;10.85;4.40;;;;;;;9.01;74.06;99552.00;5135404;27;20039;-67
2020/12/21 01:55:43;;;;;;;7.32;3.65;;;;;;;9.01;74.42;99556.44;5134970;27;20405;-67
2020/12/21 01:58:10;;;;;;;13.20;3.55;;;;;;;9.06;74.47;99556.78;5135372;27;20039;-67
2020/12/21 02:00:36;;;;;;;7.80;4.22;;;;;;;9.13;74.44;99553.31;5116910;27;20523;-67
2020/12/21 02:03:08;;;;;;;9.73;3.35;;;;;;;9.12;74.08;99556.94;5135251;27;20450;-67
2020/12/21 02:05:36;;;;;;;8.80;2.92;;;;;;;9.10;73.78;99553.66;5135047;27;20062;-67
2020/12/21 02:08:05;;;;;;;9.10;2.88;;;;;;;9.09;73.75;99545.91;5135351;27;20386;-67
2020/12/21 02:10:33;;;;;;;11.25;2.90;;;;;;;9.02;73.81;99552.81;5135338;27;20047;-67
2020/12/21 02:13:00;;;;;;;8.27;3.03;;;;;;;9.03;73.70;99543.94;5135052;27;20043;-67
2020/12/21 02:15:28;;;;;;;13.45;3.30;;;;;;;8.96;73.71;99548.22;5134742;27;20054;-67
2020/12/21 02:17:55;;;;;;;9.85;3.00;;;;;;;8.95;73.93;99551.84;5116688;27;20046;-67
2020/12/21 02:20:28;;;;;;;7.50;2.95;;;;;;;8.96;73.86;99548.22;5135094;27;20062;-67
2020/12/21 02:22:55;;;;;;;7.63;2.78;;;;;;;8.97;73.94;99553.31;5135339;27;20089;-67
2020/12/21 02:25:22;;;;;;;9.55;4.20;;;;;;;8.99;73.63;99545.25;5134802;27;20100;-67
2020/12/21 02:27:48;;;;;;;11.35;3.38;;;;;;;8.96;73.90;99549.03;5135111;27;20050;-66
2020/12/21 02:30:15;;;;;;;7.90;3.13;;;;;;;8.90;73.90;99547.88;5134931;27;20039;-66
2020/12/21 02:32:43;;;;;;;12.00;3.47;;;;;;;8.94;73.82;99545.75;5135485;27;20118;-67
2020/12/21 02:35:09;;;;;;;7.32;3.00;;;;;;;8.95;73.78;99549.22;5134545;27;20055;-66
2020/12/21 02:37:37;;;;;;;9.18;3.58;;;;;;;8.89;74.04;99548.84;5134631;27;20051;-67
2020/12/21 02:40:05;;;;;;;11.23;3.50;;;;;;;8.86;74.03;99554.47;5116387;27;20047;-66
2020/12/21 02:42:32;;;;;;;8.98;3.38;;;;;;;8.79;74.35;99550.81;5116210;27;20572;-67
2020/12/21 02:44:59;;;;;;;8.52;2.80;;;;;;;8.76;74.44;99555.59;5134300;27;20480;-67
2020/12/21 02:47:26;;;;;;;9.07;2.50;;;;;;;8.77;74.46;99550.16;5134445;27;20057;-68
2020/12/21 02:49:53;;;;;;;6.20;3.05;;;;;;;8.72;74.54;99546.38;5134433;27;20457;-68
2020/12/21 02:52:20;;;;;;;10.57;3.20;;;;;;;8.75;74.34;99548.69;5134307;27;20065;-67
2020/12/21 02:54:48;;;;;;;6.82;3.05;;;;;;;8.74;74.26;99552.31;5133835;27;20043;-66
2020/12/21 02:57:15;;;;;;;9.52;2.78;;;;;;;8.74;74.36;99550.50;5114962;27;20043;-65
2020/12/21 02:59:42;;;;;;;11.55;3.22;;;;;;;8.70;74.17;99549.19;5134254;27;20126;-65
2020/12/21 03:02:09;;;;;;;6.15;3.67;;;;;;;8.69;74.21;99558.03;5115826;27;20047;-66
2020/12/21 03:04:35;;;;;;;10.05;3.28;;;;;;;8.64;73.94;99555.06;5133755;27;20042;-66
2020/12/21 03:07:03;;;;;;;7.22;2.63;;;;;;;8.62;73.90;99549.16;5134161;27;20400;-67
2020/12/21 03:09:29;;;;;;;7.20;2.17;;;;;;;8.54;73.59;99541.22;5134094;27;20043;-66
2020/12/21 03:11:57;;;;;;;10.75;2.55;;;;;;;8.56;73.47;99547.16;5133886;27;20058;-66
2020/12/21 03:14:24;;;;;;;9.13;2.60;;;;;;;8.58;73.76;99550.47;5115440;27;20408;-67
2020/12/21 03:16:50;;;;;;;9.73;2.58;;;;;;;8.59;73.49;99552.94;5133855;27;20046;-67
2020/12/21 03:19:18;;;;;;;5.20;2.22;;;;;;;8.64;73.08;99552.44;5133795;27;20054;-67
2020/12/21 03:21:45;;;;;;;14.27;2.80;;;;;;;8.69;73.06;99563.31;5133785;27;20040;-67
2020/12/21 03:24:12;;;;;;;6.45;2.45;;;;;;;8.74;73.08;99554.94;5133377;27;20039;-67
2020/12/21 03:26:39;;;;;;;8.15;2.55;;;;;;;8.75;72.71;99548.69;5133668;27;20100;-67
2020/12/21 03:29:07;;;;;;;7.95;2.58;;;;;;;8.75;72.68;99544.22;5133694;27;20412;-67
2020/12/21 03:31:34;;;;;;;6.15;2.10;;;;;;;8.74;72.11;99544.41;5133628;27;20062;-67
2020/12/21 03:34:00;;;;;;;4.15;1.85;;;;;;;8.73;72.34;99540.91;5133265;27;20049;-67
2020/12/21 03:36:27;;;;;;;6.38;2.30;;;;;;;8.71;72.20;99537.63;5133369;27;20038;-67
2020/12/21 03:38:54;;;;;;;8.43;2.50;;;;;;;8.75;72.29;99536.31;5133600;27;20055;-67
2020/12/21 03:41:20;;;;;;;9.70;3.00;;;;;;;8.82;72.18;99539.16;5133668;27;20483;-67
2020/12/21 03:43:47;;;;;;;7.10;2.40;;;;;;;8.83;72.25;99540.78;5133158;27;20488;-67
2020/12/21 03:46:15;;;;;;;6.57;2.78;;;;;;;8.83;71.93;99543.41;5133538;27;20505;-68
2020/12/21 03:48:41;;;;;;;8.02;2.38;;;;;;;8.78;71.92;99537.81;5133443;27;20108;-67
2020/12/21 03:51:08;;;;;;;7.35;1.92;;;;;;;8.83;72.00;99527.59;5133318;27;20046;-67
2020/12/21 03:53:35;;;;;;;6.15;1.73;;;;;;;8.87;72.11;99519.19;5133163;27;20039;-67
2020/12/21 03:56:01;;;;;;;5.97;2.45;;;;;;;8.90;71.85;99513.59;5134436;27;20091;-66
2020/12/21 03:58:29;;;;;;;6.05;2.17;;;;;;;8.96;71.55;99513.94;5134747;27;20067;-66
2020/12/21 04:00:55;;;;;;;8.57;2.40;;;;;;;9.01;71.35;99504.53;5134515;27;20648;-66
2020/12/21 04:03:23;;;;;;;7.30;2.28;;;;;;;9.05;71.56;99503.19;5134483;27;20039;-66
2020/12/21 04:05:50;;;;;;;9.90;2.38;;;;;;;9.07;71.15;99509.16;5134167;27;20508;-66
2020/12/21 04:08:16;;;;;;;7.75;2.22;;;;;;;9.07;70.92;99501.25;5134175;27;20051;-66
2020/12/21 04:10:45;;;;;;;7.90;2.28;;;;;;;9.09;70.84;99495.78;5115831;28;20035;-66
2020/12/21 04:13:12;;;;;;;7.95;2.38;;;;;;;9.07;70.88;99495.16;5133818;27;20047;-66
2020/12/21 04:15:39;;;;;;;8.93;2.63;;;;;;;9.08;71.14;99504.69;5115359;28;20043;-66
2020/12/21 04:18:06;;;;;;;10.20;2.22;;;;;;;9.07;70.70;99513.59;5134001;28;20057;-66
2020/12/21 04:20:33;;;;;;;4.97;2.03;;;;;;;9.07;70.72;99501.25;5134130;28;20050;-66
2020/12/21 04:23:02;;;;;;;6.80;1.98;;;;;;;9.12;70.56;99500.72;5115649;28;20408;-66
2020/12/21 04:25:29;;;;;;;6.50;2.25;;;;;;;9.14;70.71;99496.94;5115357;28;20044;-66
2020/12/21 04:27:56;;;;;;;8.52;2.67;;;;;;;9.11;70.92;99501.72;5133616;28;20147;-66
2020/12/21 04:30:22;;;;;;;8.70;2.15;;;;;;;9.13;70.61;99495.28;5133870;28;20053;-67
2020/12/21 04:32:49;;;;;;;9.00;3.28;;;;;;;9.13;70.68;99500.56;5134853;27;20067;-67
2020/12/21 04:35:16;;;;;;;10.45;2.80;;;;;;;9.07;70.82;99501.25;5136345;28;20053;-67
2020/12/21 04:37:43;;;;;;;7.63;2.40;;;;;;;9.05;70.65;99507.66;5135952;28;20040;-67
2020/12/21 04:40:10;;;;;;;10.50;2.65;;;;;;;9.05;70.81;99502.38;5136755;27;20057;-67
2020/12/21 04:42:47;;;;;;;6.55;2.53;;;;;;;9.05;70.72;99508.47;5136831;28;20054;-67
2020/12/21 04:45:14;;;;;;;9.10;2.65;;;;;;;9.06;70.18;99511.94;5136989;28;20124;-67
2020/12/21 04:47:43;;;;;;;11.30;2.15;;;;;;;8.98;70.39;99506.66;5138922;28;20556;-67
2020/12/21 04:50:14;;;;;;;6.47;2.20;;;;;;;8.96;70.87;99514.75;5134768;27;20047;-67
2020/12/21 04:52:49;;;;;;;5.38;2.60;;;;;;;9.03;70.54;99509.66;5116114;28;20050;-67
2020/12/21 04:55:17;;;;;;;10.23;3.03;;;;;;;9.05;70.64;99508.47;5134264;28;20039;-66
2020/12/21 04:57:57;;;;;;;7.50;2.83;;;;;;;9.08;70.45;99509.97;5134845;28;20070;-66
2020/12/21 05:00:26;;;;;;;5.95;2.70;;;;;;;9.05;70.72;99515.56;5134399;28;20050;-66
2020/12/21 05:02:53;;;;;;;10.23;2.05;;;;;;;9.09;70.95;99503.69;5115592;28;20039;-67
2020/12/21 05:05:30;;;;;;;8.15;2.50;;;;;;;9.11;70.58;99502.56;5133816;27;20043;-66
2020/12/21 05:07:59;;;;;;;9.77;2.88;;;;;;;9.05;70.69;99500.56;5115940;28;20053;-67
2020/12/21 05:10:26;;;;;;;7.57;1.67;;;;;;;9.09;71.19;99504.50;5133815;28;20047;-67
2020/12/21 05:13:00;;;;;;;9.85;3.08;;;;;;;9.13;70.51;99502.38;5115222;28;20130;-67
2020/12/21 05:15:28;;;;;;;10.90;2.70;;;;;;;9.11;71.17;99499.91;5134020;28;20123;-67
2020/12/21 05:18:09;;;;;;;8.25;2.55;;;;;;;9.13;71.26;99508.47;5134239;27;20057;-67
2020/12/21 05:20:37;;;;;;;8.15;2.70;;;;;;;9.13;70.67;99500.56;5134990;27;20131;-67
2020/12/21 05:23:06;;;;;;;8.57;2.63;;;;;;;9.07;70.64;99503.06;5138182;27;20114;-67
2020/12/21 05:25:33;;;;;;;6.07;1.80;;;;;;;8.97;71.11;99505.84;5137357;27;20044;-67
2020/12/21 05:28:13;;;;;;;6.55;2.83;;;;;;;8.98;71.48;99502.25;5137578;27;20054;-67
2020/12/21 05:30:57;;;;;;;6.03;2.35;;;;;;;8.93;71.24;99501.88;5137569;27;20039;-67
2020/12/21 05:33:24;;;;;;;6.95;2.65;;;;;;;8.89;71.52;99498.75;5137635;27;20105;-67
2020/12/21 05:35:51;;;;;;;16.55;7.35;;;;;;;8.93;71.49;99504.53;5137935;27;20049;-67
2020/12/21 05:38:24;;;;;;;6.32;2.90;;;;;;;8.93;71.31;99492.16;5118859;27;20046;-67
2020/12/21 05:40:51;;;;;;;5.22;2.50;;;;;;;8.87;70.85;99487.56;5137640;27;20053;-67
2020/12/21 05:43:26;;;;;;;9.75;2.72;;;;;;;8.80;71.60;99489.19;5137259;27;20051;-67
2020/12/21 05:46:04;;;;;;;6.85;2.33;;;;;;;8.78;71.61;99477.19;5119185;27;20043;-67
2020/12/21 05:48:32;;;;;;;8.00;2.78;;;;;;;8.76;72.11;99473.88;5137677;27;20043;-67
2020/12/21 05:51:02;;;;;;;9.98;3.22;;;;;;;8.72;72.01;99472.56;5138036;27;20390;-67
2020/12/21 05:53:39;;;;;;;11.43;3.65;;;;;;;8.74;72.18;99463.50;5137224;27;20047;-67
2020/12/21 05:56:06;;;;;;;7.80;3.33;;;;;;;8.66;72.13;99463.50;5137510;27;20507;-67
2020/12/21 05:58:35;;;;;;;7.50;3.13;;;;;;;8.61;72.14;99448.19;5118705;27;20051;-67
2020/12/21 06:01:04;;;;;;;7.57;2.75;;;;;;;8.59;72.39;99447.50;5137460;27;20039;-67
2020/12/21 06:03:43;;;;;;;8.60;3.17;;;;;;;8.54;72.58;99447.19;5136783;27;20035;-67
2020/12/21 06:06:13;;;;;;;13.05;3.40;;;;;;;8.52;72.86;99451.78;5137167;27;20043;-67
2020/12/21 06:08:43;;;;;;;7.35;3.08;;;;;;;8.48;73.21;99455.72;5118914;27;20597;-67
2020/12/21 06:11:13;;;;;;;12.75;3.13;;;;;;;8.54;73.27;99464.81;5118957;27;20059;-67
2020/12/21 06:13:51;;;;;;;4.35;2.70;;;;;;;8.55;72.91;99458.53;5136922;27;20047;-67
2020/12/21 06:16:18;;;;;;;7.95;3.15;;;;;;;8.54;73.20;99455.09;5137006;27;20133;-67
2020/12/21 06:18:59;;;;;;;6.45;2.95;;;;;;;8.57;72.87;99452.13;5136842;27;20054;-67
2020/12/21 06:21:28;;;;;;;8.88;4.05;;;;;;;8.55;72.91;99453.28;5118634;27;20058;-67
2020/12/21 06:23:56;;;;;;;7.32;2.92;;;;;;;8.51;73.00;99450.13;5137019;27;20377;-67
2020/12/21 06:26:36;;;;;;;8.77;3.22;;;;;;;8.55;73.21;99450.66;5138620;27;20047;-67
2020/12/21 06:29:08;;;;;;;7.25;2.95;;;;;;;8.56;73.22;99453.09;5121939;27;20150;-67
2020/12/21 06:31:43;;;;;;;9.15;2.60;;;;;;;8.57;73.68;99446.88;5141287;27;20047;-67
2020/12/21 06:34:12;;;;;;;10.45;3.50;;;;;;;8.64;73.77;99439.09;5137040;27;20043;-67
2020/12/21 06:36:39;;;;;;;8.25;3.78;;;;;;;8.68;73.26;99435.16;5136247;27;20523;-67
2020/12/21 06:39:07;;;;;;;6.28;3.17;;;;;;;8.67;73.39;99422.97;5136742;27;20039;-67
2020/12/21 06:41:35;;;;;;;6.63;3.10;;;;;;;8.65;73.65;99425.78;5136203;27;20404;-67
2020/12/21 06:44:06;;;;;;;8.07;3.20;;;;;;;8.66;73.58;99423.97;5136507;27;20059;-67
2020/12/21 06:46:34;;;;;;;5.68;3.33;;;;;;;8.71;73.67;99429.56;5136563;27;20045;-67
2020/12/21 06:49:03;;;;;;;6.97;2.95;;;;;;;8.71;73.38;99434.84;5136696;27;20045;-67
2020/12/21 06:51:30;;;;;;;7.03;2.90;;;;;;;8.73;73.56;99427.56;5136434;27;20035;-67
2020/12/21 06:53:57;;;;;;;9.60;3.00;;;;;;;8.71;73.62;99429.56;5135063;27;20066;-67
2020/12/21 06:56:26;;;;;;;7.53;3.10;;;;;;;8.76;73.23;99431.69;5134961;27;20058;-66
2020/12/21 06:58:57;;;;;;;9.38;3.63;;;;;;;8.78;73.64;99438.47;5120779;27;20043;-67
2020/12/21 07:01:25;;;;;;;8.40;3.30;;;;;;;8.80;73.60;99440.91;5140819;27;20508;-67
2020/12/21 07:03:52;;;;;;;8.30;3.15;;;;;;;8.89;73.65;99438.09;5137776;27;20047;-67
2020/12/21 07:06:19;;;;;;;8.48;3.35;;;;;;;9.00;73.50;99444.03;5115732;27;20043;-67
2020/12/21 07:08:47;;;;;;;8.23;3.20;;;;;;;8.99;73.29;99450.31;5134627;27;20043;-67
2020/12/21 07:11:16;;;;;;;6.88;3.47;;;;;;;8.98;73.10;99451.28;5134204;27;20043;-67
2020/12/21 07:13:44;;;;;;;9.68;2.83;;;;;;;8.98;72.96;99454.78;5133768;27;20082;-67
2020/12/21 07:16:11;;;;;;;10.00;3.08;;;;;;;9.00;73.10;99460.69;5134221;27;20035;-67
2020/12/21 07:18:38;;;;;;;6.97;2.67;;;;;;;8.96;72.95;99471.72;5133889;27;20503;-67
2020/12/21 07:21:07;;;;;;;11.75;3.10;;;;;;;8.95;73.32;99476.19;5133850;27;20100;-67
2020/12/21 07:23:34;;;;;;;9.40;3.45;;;;;;;8.96;73.39;99469.09;5133660;27;20055;-67
2020/12/21 07:26:01;;;;;;;10.68;3.72;;;;;;;9.01;73.41;99467.59;5133690;27;20035;-67
2020/12/21 07:28:29;;;;;;;8.25;3.22;;;;;;;9.03;73.44;99467.44;5133768;27;20515;-67
2020/12/21 07:31:07;;;;;;;5.97;2.85;;;;;;;9.05;72.99;99471.56;5133846;27;20046;-67
2020/12/21 07:33:36;;;;;;;8.20;3.00;;;;;;;9.06;73.04;99473.22;5133466;27;20039;-67
2020/12/21 07:36:03;;;;;;;6.90;2.90;;;;;;;9.09;73.15;99472.03;5115020;27;20047;-67
2020/12/21 07:38:30;;;;;;;8.95;3.70;;;;;;;9.11;73.20;99468.25;5133731;27;20035;-67
2020/12/21 07:40:58;;;;;;;10.38;3.95;;;;;;;9.11;72.91;99470.91;5133493;27;20050;-67
2020/12/21 07:43:34;;;;;;;9.48;3.40;;;;;;;9.18;72.98;99458.69;5132760;27;20183;-68
2020/12/21 07:46:04;;;;;;;5.65;3.42;;;;;;;9.20;72.82;99468.25;5133407;27;20043;-67
2020/12/21 07:48:33;;;;;;;7.13;3.45;;;;;;;9.14;73.16;99467.09;5115049;27;20528;-67
2020/12/21 07:51:04;;;;;;;7.63;3.75;;;;;;;9.16;73.06;99462.47;5133499;27;20035;-67
2020/12/21 07:53:34;;;;;;;7.60;3.15;;;;;;;9.18;73.11;99473.69;5114779;27;20046;-67
2020/12/21 07:56:01;;;;;;;7.40;3.20;;;;;;;9.21;73.38;99470.72;5133055;27;20420;-68
2020/12/21 07:58:34;;;;;;;7.88;3.50;;;;;;;9.21;73.03;99473.34;5133234;27;20507;-67
2020/12/21 08:01:01;;;;;;;7.30;3.33;;;;;;;9.18;72.88;99471.03;5133243;27;20047;-68
2020/12/21 08:03:30;;;;;;;7.25;3.42;;;;;;;9.11;73.14;99464.81;5132994;27;20039;-67
2020/12/21 08:06:09;;;;;;;12.90;3.05;;;;;;;9.09;73.42;99464.94;5133090;27;20403;-67
2020/12/21 08:08:36;;;;;;;9.43;3.53;;;;;;;9.13;72.96;99461.00;5114644;27;20050;-67
2020/12/21 08:11:07;;;;;;;6.65;3.50;;;;;;;9.08;72.97;99467.78;5133194;27;20043;-66
2020/12/21 08:13:35;;;;;;;11.90;3.50;;;;;;;9.05;73.37;99468.91;5132659;27;20120;-68
2020/12/21 08:16:07;;;;;;;7.13;3.33;;;;;;;9.07;72.93;99474.88;5133038;27;20035;-65
2020/12/21 08:18:34;;;;;;;10.95;4.18;;;;;;;9.04;73.20;99469.09;5133308;27;20039;-64
2020/12/21 08:21:01;;;;;;;10.45;4.43;;;;;;;9.07;73.35;99480.13;5132897;27;20419;-64
2020/12/21 08:23:30;;;;;;;10.90;3.67;;;;;;;9.10;73.11;99471.06;5132727;28;20071;-64
2020/12/21 08:25:58;;;;;;;12.18;4.35;;;;;;;9.06;73.24;99470.59;5132837;28;20049;-64
2020/12/21 08:28:30;;;;;;;11.93;4.32;;;;;;;9.05;72.88;99468.09;5132872;27;20050;-64
2020/12/21 08:31:05;;;;;;;13.63;4.25;;;;;;;9.03;73.36;99475.38;5132973;28;20062;-64
2020/12/21 08:33:32;;;;;;;10.35;3.60;;;;;;;9.01;73.07;99464.97;5132657;27;20038;-64
2020/12/21 08:36:15;;;;;;;11.23;4.70;;;;;;;9.07;73.24;99469.59;5132604;27;20045;-64
2020/12/21 08:38:43;;;;;;;6.63;3.70;;;;;;;9.10;73.33;99465.78;5133036;28;20039;-63
2020/12/21 08:41:10;;;;;;;5.40;2.83;;;;;;;9.15;72.92;99474.03;5132940;27;20039;-63
2020/12/21 08:43:37;;;;;;;11.05;3.45;;;;;;;9.22;72.95;99466.25;5132503;27;20039;-63
2020/12/21 08:46:09;;;;;;;11.55;3.80;;;;;;;9.26;72.87;99464.94;5132723;27;20130;-63
2020/12/21 08:48:37;;;;;;;7.20;4.00;;;;;;;9.23;72.84;99462.66;5132835;27;20441;-64
2020/12/21 08:51:05;;;;;;;9.73;4.25;;;;;;;9.30;73.05;99466.25;5132578;28;20043;-64
2020/12/21 08:53:52;;;;;;;6.18;3.10;;;;;;;9.35;73.10;99456.84;5132510;28;20047;-63
2020/12/21 08:56:19;;;;;;;9.05;3.13;;;;;;;9.42;72.57;99455.16;5134776;27;20039;-63
2020/12/21 08:58:46;;;;;;;8.55;3.83;;;;;;;9.44;72.51;99457.66;5136635;27;20043;-63
2020/12/21 09:01:12;;;;;;;6.93;3.65;;;;;;;9.47;72.31;99457.31;5136688;27;20043;-63
2020/12/21 09:03:39;;;;;;;6.70;3.20;;;;;;;9.48;72.25;99456.31;5136271;27;20054;-63
2020/12/21 09:06:06;;;;;;;3.97;2.70;;;;;;;9.45;72.25;99447.91;5118190;27;20047;-63
2020/12/21 09:08:52;;;;;;;7.40;3.00;;;;;;;9.48;72.13;99450.22;5136586;27;20481;-63
2020/12/21 09:11:20;;;;;;;7.13;3.72;;;;;;;9.52;71.94;99448.88;5136454;27;20047;-63
2020/12/21 09:13:47;;;;;;;6.55;2.42;;;;;;;9.50;71.35;99442.94;5136126;27;20629;-64
2020/12/21 09:16:18;;;;;;;8.10;3.15;;;;;;;9.50;71.90;99441.13;5136340;27;20046;-63
2020/12/21 09:18:45;;;;;;;9.52;4.93;;;;;;;9.48;71.54;99434.38;5136465;27;20035;-64
2020/12/21 09:21:18;;;;;;;12.82;5.53;;;;;;;9.48;71.62;99437.84;5136261;27;20488;-64
2020/12/21 09:23:44;;;;;;;9.82;4.32;;;;;;;9.46;71.87;99439.00;5135916;27;20039;-64
2020/12/21 09:26:12;;;;;;;11.43;3.92;;;;;;;9.47;71.72;99452.03;5136072;27;20404;-63
2020/12/21 09:28:39;;;;;;;10.75;3.60;;;;;;;9.51;71.64;99449.84;5136274;27;20067;-63
2020/12/21 09:31:05;;;;;;;10.95;4.60;;;;;;;9.52;71.68;99439.16;5136241;27;20039;-64
2020/12/21 09:33:32;;;;;;;11.50;6.55;;;;;;;9.57;71.88;99454.47;5135845;27;20043;-64
2020/12/21 09:35:59;;;;;;;16.55;10.48;;;;;;;9.63;71.33;99451.13;5135702;27;20039;-64
2020/12/21 09:38:25;;;;;;;12.18;6.22;;;;;;;9.65;71.24;99444.69;5136352;27;20054;-64
2020/12/21 09:40:52;;;;;;;6.80;3.35;;;;;;;9.68;70.97;99430.34;5136088;27;20045;-64
2020/12/21 09:43:20;;;;;;;5.50;3.45;;;;;;;9.61;71.05;99427.56;5135699;27;20119;-64
2020/12/21 09:45:47;;;;;;;6.03;2.47;;;;;;;9.64;71.19;99427.22;5117341;27;20047;-64
2020/12/21 09:48:14;;;;;;;9.27;4.63;;;;;;;9.66;70.90;99419.94;5135725;27;20049;-64
2020/12/21 09:50:41;;;;;;;11.10;4.65;;;;;;;9.72;70.89;99415.81;5135754;27;20096;-64
2020/12/21 09:53:08;;;;;;;6.30;2.90;;;;;;;9.77;70.98;99426.66;5135646;27;20411;-64
2020/12/21 09:55:36;;;;;;;6.60;3.10;;;;;;;9.78;70.34;99424.84;5135480;27;20488;-64
2020/12/21 09:58:03;;;;;;;8.85;2.75;;;;;;;9.78;70.11;99422.22;5135677;27;20039;-64
2020/12/21 10:00:30;;;;;;;10.13;4.20;;;;;;;9.80;70.58;99415.78;5135714;27;20042;-64
2020/12/21 10:02:57;;;;;;;9.43;3.35;;;;;;;9.82;70.27;99413.78;5135943;27;20047;-64
2020/12/21 10:05:24;;;;;;;7.15;2.40;;;;;;;9.81;70.10;99400.75;5135313;27;20047;-64
2020/12/21 10:07:50;;;;;;;4.43;2.63;;;;;;;9.84;70.29;99395.13;5135356;27;20517;-64
2020/12/21 10:10:17;;;;;;;3.70;2.33;;;;;;;9.89;69.91;99395.44;5136258;27;20047;-64
2020/12/21 10:12:44;;;;;;;5.70;2.33;;;;;;;9.86;69.71;99382.56;5136026;27;20050;-65
2020/12/21 10:15:11;;;;;;;7.13;3.28;;;;;;;9.88;69.70;99391.97;5135819;27;20043;-65
2020/12/21 10:17:38;;;;;;;5.65;3.13;;;;;;;9.89;69.52;99385.69;5135721;27;20122;-64
2020/12/21 10:20:05;;;;;;;7.88;2.97;;;;;;;9.90;69.51;99375.94;5136615;27;20054;-64
2020/12/21 10:22:32;;;;;;;7.60;2.78;;;;;;;9.96;69.04;99369.97;5136465;27;20053;-64
2020/12/21 10:24:59;;;;;;;7.65;2.30;;;;;;;9.96;69.06;99359.41;5117047;27;20508;-64
2020/12/21 10:27:27;;;;;;;4.15;2.22;;;;;;;9.99;69.17;99352.94;5136217;27;20043;-64
2020/12/21 10:29:54;;;;;;;6.05;2.50;;;;;;;10.05;69.13;99353.06;5136207;27;20157;-64
2020/12/21 10:32:21;;;;;;;5.93;2.08;;;;;;;10.09;68.75;99364.09;5136253;27;20412;-65
2020/12/21 10:34:48;;;;;;;5.20;2.08;;;;;;;10.01;68.75;99364.97;5135913;27;20046;-64
2020/12/21 10:37:15;;;;;;;4.95;2.40;;;;;;;9.96;68.54;99354.13;5117549;27;20047;-64
2020/12/21 10:39:50;;;;;;;4.28;2.30;;;;;;;9.87;68.58;99350.69;5136654;27;20057;-64
2020/12/21 10:42:17;;;;;;;9.05;3.72;;;;;;;9.85;68.50;99336.03;5136103;27;20511;-65
2020/12/21 10:44:43;;;;;;;6.35;1.98;;;;;;;9.79;68.74;99345.44;5117905;27;20054;-64
2020/12/21 10:47:10;;;;;;;6.65;2.58;;;;;;;9.86;68.52;99338.50;5140361;27;20122;-64
2020/12/21 10:49:37;;;;;;;5.13;2.22;;;;;;;9.99;68.77;99337.09;5140185;27;20050;-63
2020/12/21 10:52:05;;;;;;;5.40;2.13;;;;;;;10.07;68.26;99337.03;5139879;27;20043;-63
2020/12/21 10:54:32;;;;;;;4.65;2.65;;;;;;;10.26;67.97;99347.16;5140161;27;20415;-63
2020/12/21 10:57:02;;;;;;;4.40;2.15;;;;;;;10.26;68.07;99343.69;5139481;27;20070;-64
2020/12/21 10:59:29;;;;;;;6.28;2.28;;;;;;;10.22;68.32;99347.66;5139796;27;20047;-63
2020/12/21 11:01:57;;;;;;;5.25;1.88;;;;;;;10.21;68.56;99335.47;5139758;27;20096;-63
2020/12/21 11:04:23;;;;;;;3.97;2.03;;;;;;;10.31;68.69;99323.66;5139465;27;20039;-63
2020/12/21 11:06:50;;;;;;;7.75;2.55;;;;;;;10.39;68.68;99312.19;5139104;27;20489;-63
2020/12/21 11:09:18;;;;;;;7.60;1.90;;;;;;;10.42;68.40;99314.50;5138638;27;20057;-63
2020/12/21 11:11:44;;;;;;;7.60;3.03;;;;;;;10.53;68.22;99315.88;5120579;27;20071;-63
2020/12/21 11:14:13;;;;;;;6.13;2.70;;;;;;;10.62;68.03;99304.22;5139635;27;20108;-63
2020/12/21 11:16:40;;;;;;;5.38;2.42;;;;;;;10.69;68.04;99302.50;5140616;27;20039;-63
2020/12/21 11:19:07;;;;;;;6.47;2.53;;;;;;;10.74;67.80;99299.31;5139853;27;20053;-63
2020/12/21 11:21:38;;;;;;;6.70;2.40;;;;;;;10.77;67.30;99299.75;5139625;27;20051;-64
2020/12/21 11:24:05;;;;;;;6.57;1.95;;;;;;;10.82;67.26;99300.06;5120315;27;20039;-64
2020/12/21 11:26:33;;;;;;;4.43;1.77;;;;;;;10.84;66.82;99303.31;5135282;27;20043;-65
2020/12/21 11:28:59;;;;;;;4.38;2.25;;;;;;;11.01;66.64;99301.31;5134953;27;20049;-65
2020/12/21 11:31:26;;;;;;;3.58;2.28;;;;;;;11.10;66.20;99294.09;5115935;27;20043;-65
2020/12/21 11:33:53;;;;;;;6.50;1.77;;;;;;;11.00;65.90;99288.28;5119460;27;20051;-65
2020/12/21 11:36:19;;;;;;;7.45;2.13;;;;;;;11.02;65.73;99297.69;5138097;27;20046;-65
2020/12/21 11:38:46;;;;;;;4.32;2.03;;;;;;;11.03;65.41;99299.31;5138956;27;20046;-65
2020/12/21 11:41:13;;;;;;;5.07;1.55;;;;;;;10.86;65.72;99301.34;5121091;27;20514;-65
2020/12/21 11:43:40;;;;;;;3.33;1.65;;;;;;;10.79;65.68;99295.13;5121130;27;20043;-65
2020/12/21 11:46:07;;;;;;;5.53;1.70;;;;;;;10.75;65.91;99293.84;5135983;27;20049;-64